GLO9196 SBGL-SBSV
Flight info
| Callsign | GLO9196 |
|---|---|
| Flight time | 1h 40m |
| Altitude | 37000 |
| Route | IMBAP UZ42 SIRAP DCT OSAGU DCT ZUMBA |
| Aircraft | B738/M-SDFGIKLORWX/LB1 |
Departure
| Time | 2026-05-09 02:40 |
|---|---|
| Airport | Rio Galeão – Tom Jobim International Airport (SBGL) |
Arrival
| Time | 2026-05-09 04:20 |
|---|---|
| Airport | Deputado Luiz Eduardo Magalhães International Airport (SBSV) |
| Time | Latitude | Longitude | Altitude | Speed | Heading |
|---|---|---|---|---|---|
| 2026-05-09 02:24 | -22.81041 | -43.25313 | 25 ft | 0 kts | 93° |
| 2026-05-09 02:33 | -22.81041 | -43.25316 | 25 ft | 3 kts | 93° |
| 2026-05-09 02:33 | -22.81042 | -43.25344 | 25 ft | 4 kts | 79° |
| 2026-05-09 02:34 | -22.81050 | -43.25371 | 29 ft | 4 kts | 53° |
| 2026-05-09 02:34 | -22.81068 | -43.25386 | 25 ft | 2 kts | 1° |
| 2026-05-09 02:34 | -22.81074 | -43.25386 | 25 ft | 0 kts | 360° |
| 2026-05-09 02:36 | -22.81065 | -43.25386 | 25 ft | 4 kts | 360° |
| 2026-05-09 02:37 | -22.81015 | -43.25383 | 25 ft | 11 kts | 7° |
| 2026-05-09 02:37 | -22.80946 | -43.25429 | 25 ft | 15 kts | 299° |
| 2026-05-09 02:37 | -22.80895 | -43.25547 | 25 ft | 19 kts | 295° |
| 2026-05-09 02:37 | -22.80816 | -43.25675 | 25 ft | 21 kts | 328° |
| 2026-05-09 02:38 | -22.80689 | -43.25623 | 28 ft | 20 kts | 36° |
| 2026-05-09 02:38 | -22.80575 | -43.25535 | 27 ft | 20 kts | 36° |
| 2026-05-09 02:38 | -22.80474 | -43.25440 | 28 ft | 19 kts | 33° |
| 2026-05-09 02:38 | -22.80362 | -43.25479 | 25 ft | 18 kts | 324° |
| 2026-05-09 02:39 | -22.80245 | -43.25506 | 25 ft | 18 kts | 26° |
| 2026-05-09 02:39 | -22.80160 | -43.25418 | 28 ft | 17 kts | 70° |
| 2026-05-09 02:39 | -22.80099 | -43.25190 | 25 ft | 64 kts | 75° |
| 2026-05-09 02:39 | -22.79914 | -43.24468 | 27 ft | 132 kts | 74° |
| 2026-05-09 02:40 | -22.79615 | -43.23315 | 163 ft | 175 kts | 74° |
| 2026-05-09 02:40 | -22.79284 | -43.22037 | 956 ft | 180 kts | 74° |
| 2026-05-09 02:40 | -22.78942 | -43.20668 | 1558 ft | 201 kts | 76° |
| 2026-05-09 02:40 | -22.78606 | -43.19087 | 1828 ft | 227 kts | 77° |
| 2026-05-09 02:41 | -22.78251 | -43.17368 | 2254 ft | 245 kts | 77° |
| 2026-05-09 02:41 | -22.77867 | -43.15514 | 2850 ft | 256 kts | 75° |
| 2026-05-09 02:41 | -22.77472 | -43.13621 | 3782 ft | 257 kts | 73° |
| 2026-05-09 02:41 | -22.77075 | -43.11725 | 4690 ft | 261 kts | 73° |
| 2026-05-09 02:42 | -22.76664 | -43.09776 | 5470 ft | 269 kts | 73° |
| 2026-05-09 02:42 | -22.76242 | -43.07782 | 6287 ft | 274 kts | 73° |
| 2026-05-09 02:42 | -22.75812 | -43.05751 | 7089 ft | 279 kts | 73° |
| 2026-05-09 02:42 | -22.75373 | -43.03680 | 7876 ft | 284 kts | 73° |
| 2026-05-09 02:43 | -22.74801 | -43.01628 | 8631 ft | 285 kts | 57° |
| 2026-05-09 02:43 | -22.73509 | -43.00055 | 9381 ft | 281 kts | 31° |
| 2026-05-09 02:43 | -22.71706 | -42.99281 | 10137 ft | 280 kts | 6° |
| 2026-05-09 02:43 | -22.69726 | -42.99389 | 10501 ft | 299 kts | 344° |
| 2026-05-09 02:44 | -22.67789 | -43.00388 | 10831 ft | 316 kts | 330° |
| 2026-05-09 02:44 | -22.65791 | -43.01421 | 11413 ft | 323 kts | 348° |
| 2026-05-09 02:44 | -22.63560 | -43.01347 | 12166 ft | 325 kts | 14° |
| 2026-05-09 02:44 | -22.61428 | -43.00526 | 12930 ft | 327 kts | 20° |
| 2026-05-09 02:45 | -22.59292 | -42.99602 | 13575 ft | 333 kts | 19° |
| 2026-05-09 02:45 | -22.57099 | -42.98750 | 14205 ft | 337 kts | 17° |
| 2026-05-09 02:45 | -22.54847 | -42.97995 | 14863 ft | 341 kts | 15° |
| 2026-05-09 02:45 | -22.52579 | -42.97324 | 15501 ft | 344 kts | 13° |
| 2026-05-09 02:46 | -22.50246 | -42.96692 | 16140 ft | 348 kts | 12° |
| 2026-05-09 02:46 | -22.47883 | -42.96084 | 16802 ft | 351 kts | 12° |
| 2026-05-09 02:46 | -22.45481 | -42.95484 | 17351 ft | 356 kts | 12° |
| 2026-05-09 02:46 | -22.43051 | -42.94883 | 17891 ft | 361 kts | 12° |
| 2026-05-09 02:47 | -22.40597 | -42.94277 | 17968 ft | 363 kts | 12° |
| 2026-05-09 02:47 | -22.38144 | -42.93671 | 17988 ft | 360 kts | 12° |
| 2026-05-09 02:47 | -22.35695 | -42.93066 | 17989 ft | 361 kts | 12° |
| 2026-05-09 02:47 | -22.33222 | -42.92473 | 18129 ft | 368 kts | 8° |
| 2026-05-09 02:48 | -22.30674 | -42.92425 | 18758 ft | 367 kts | 352° |
| 2026-05-09 02:48 | -22.28153 | -42.92849 | 19459 ft | 366 kts | 350° |
| 2026-05-09 02:48 | -22.25624 | -42.93318 | 19993 ft | 371 kts | 350° |
| 2026-05-09 02:48 | -22.23064 | -42.93773 | 20498 ft | 374 kts | 350° |
| 2026-05-09 02:49 | -22.20479 | -42.94211 | 21019 ft | 378 kts | 351° |
| 2026-05-09 02:49 | -22.17855 | -42.94578 | 21472 ft | 383 kts | 358° |
| 2026-05-09 02:49 | -22.15196 | -42.94190 | 21958 ft | 389 kts | 16° |
| 2026-05-09 02:49 | -22.12746 | -42.92939 | 22466 ft | 393 kts | 30° |
| 2026-05-09 02:50 | -22.10424 | -42.91353 | 22933 ft | 397 kts | 31° |
| 2026-05-09 02:50 | -22.08131 | -42.89726 | 23333 ft | 402 kts | 32° |
| 2026-05-09 02:50 | -22.05790 | -42.88053 | 23745 ft | 405 kts | 32° |
| 2026-05-09 02:50 | -22.03419 | -42.86369 | 24152 ft | 409 kts | 31° |
| 2026-05-09 02:51 | -22.01028 | -42.84686 | 24562 ft | 412 kts | 31° |
| 2026-05-09 02:51 | -21.98612 | -42.82998 | 24940 ft | 416 kts | 31° |
| 2026-05-09 02:51 | -21.96161 | -42.81295 | 25305 ft | 420 kts | 31° |
| 2026-05-09 02:51 | -21.93689 | -42.79582 | 25659 ft | 424 kts | 31° |
| 2026-05-09 02:52 | -21.91200 | -42.77860 | 26028 ft | 427 kts | 31° |
| 2026-05-09 02:52 | -21.88685 | -42.76122 | 26392 ft | 430 kts | 31° |
| 2026-05-09 02:52 | -21.86157 | -42.74374 | 26724 ft | 434 kts | 31° |
| 2026-05-09 02:52 | -21.83640 | -42.72635 | 27051 ft | 437 kts | 31° |
| 2026-05-09 02:53 | -21.81070 | -42.70860 | 27393 ft | 440 kts | 31° |
| 2026-05-09 02:53 | -21.78485 | -42.69075 | 27718 ft | 443 kts | 31° |
| 2026-05-09 02:53 | -21.75883 | -42.67279 | 28029 ft | 446 kts | 31° |
| 2026-05-09 02:53 | -21.73254 | -42.65464 | 28322 ft | 450 kts | 31° |
| 2026-05-09 02:54 | -21.70610 | -42.63640 | 28646 ft | 452 kts | 31° |
| 2026-05-09 02:54 | -21.67953 | -42.61808 | 28946 ft | 455 kts | 31° |
| 2026-05-09 02:54 | -21.65278 | -42.59965 | 29242 ft | 458 kts | 31° |
| 2026-05-09 02:54 | -21.62576 | -42.58126 | 29524 ft | 460 kts | 29° |
| 2026-05-09 02:55 | -21.59794 | -42.56413 | 29800 ft | 463 kts | 27° |
| 2026-05-09 02:55 | -21.56946 | -42.54776 | 30071 ft | 465 kts | 26° |
| 2026-05-09 02:55 | -21.54062 | -42.53163 | 30340 ft | 468 kts | 25° |
| 2026-05-09 02:55 | -21.51204 | -42.51568 | 30628 ft | 470 kts | 25° |
| 2026-05-09 02:56 | -21.48311 | -42.49941 | 30922 ft | 471 kts | 26° |
| 2026-05-09 02:56 | -21.45410 | -42.48295 | 31222 ft | 472 kts | 26° |
| 2026-05-09 02:56 | -21.42502 | -42.46635 | 31495 ft | 474 kts | 26° |
| 2026-05-09 02:56 | -21.39590 | -42.44964 | 31734 ft | 476 kts | 26° |
| 2026-05-09 02:57 | -21.36657 | -42.43278 | 31960 ft | 478 kts | 26° |
| 2026-05-09 02:57 | -21.33719 | -42.41589 | 32197 ft | 480 kts | 26° |
| 2026-05-09 02:57 | -21.30769 | -42.39893 | 32456 ft | 481 kts | 26° |
| 2026-05-09 02:57 | -21.27812 | -42.38195 | 32712 ft | 481 kts | 26° |
| 2026-05-09 02:58 | -21.24861 | -42.36502 | 33044 ft | 480 kts | 26° |
| 2026-05-09 02:58 | -21.21925 | -42.34819 | 33391 ft | 478 kts | 26° |
| 2026-05-09 02:58 | -21.18989 | -42.33136 | 33740 ft | 476 kts | 26° |
| 2026-05-09 02:58 | -21.16065 | -42.31461 | 34026 ft | 476 kts | 26° |
| 2026-05-09 02:59 | -21.13185 | -42.29813 | 34281 ft | 476 kts | 26° |
| 2026-05-09 02:59 | -21.10252 | -42.28135 | 34539 ft | 476 kts | 26° |
| 2026-05-09 02:59 | -21.07329 | -42.26463 | 34791 ft | 476 kts | 26° |
| 2026-05-09 02:59 | -21.04408 | -42.24793 | 35055 ft | 476 kts | 26° |
| 2026-05-09 03:00 | -21.01484 | -42.23123 | 35298 ft | 476 kts | 26° |
| 2026-05-09 03:00 | -20.98564 | -42.21455 | 35538 ft | 476 kts | 26° |
| 2026-05-09 03:00 | -20.95637 | -42.19784 | 35759 ft | 476 kts | 26° |
| 2026-05-09 03:00 | -20.92715 | -42.18117 | 35993 ft | 476 kts | 26° |
| 2026-05-09 03:01 | -20.89786 | -42.16446 | 36210 ft | 476 kts | 26° |
| 2026-05-09 03:01 | -20.86865 | -42.14780 | 36402 ft | 476 kts | 26° |
| 2026-05-09 03:01 | -20.83933 | -42.13109 | 36564 ft | 478 kts | 26° |
| 2026-05-09 03:01 | -20.81011 | -42.11444 | 36869 ft | 474 kts | 26° |
| 2026-05-09 03:02 | -20.78104 | -42.09788 | 37051 ft | 473 kts | 26° |
| 2026-05-09 03:02 | -20.72386 | -42.06533 | 37043 ft | 462 kts | 26° |
| 2026-05-09 03:03 | -20.66741 | -42.03324 | 37060 ft | 459 kts | 26° |
| 2026-05-09 03:03 | -20.61050 | -42.00247 | 37059 ft | 457 kts | 19° |
| 2026-05-09 03:04 | -20.55070 | -41.97965 | 37063 ft | 457 kts | 17° |
| 2026-05-09 03:04 | -20.49062 | -41.95776 | 37073 ft | 458 kts | 17° |
| 2026-05-09 03:05 | -20.43019 | -41.93546 | 37067 ft | 460 kts | 17° |
| 2026-05-09 03:05 | -20.36968 | -41.91284 | 37068 ft | 461 kts | 18° |
| 2026-05-09 03:06 | -20.30908 | -41.89009 | 37083 ft | 462 kts | 18° |
| 2026-05-09 03:06 | -20.24836 | -41.86731 | 37078 ft | 463 kts | 18° |
| 2026-05-09 03:07 | -20.18753 | -41.84451 | 37083 ft | 463 kts | 18° |
| 2026-05-09 03:07 | -20.12668 | -41.82173 | 37090 ft | 464 kts | 17° |
| 2026-05-09 03:08 | -20.06580 | -41.79897 | 37086 ft | 463 kts | 17° |
| 2026-05-09 03:08 | -20.00541 | -41.77640 | 37094 ft | 463 kts | 17° |
| 2026-05-09 03:09 | -19.94470 | -41.75374 | 37091 ft | 462 kts | 17° |
| 2026-05-09 03:09 | -19.88408 | -41.73112 | 37086 ft | 461 kts | 17° |
| 2026-05-09 03:10 | -19.82351 | -41.70854 | 37093 ft | 460 kts | 17° |
| 2026-05-09 03:10 | -19.76305 | -41.68603 | 37100 ft | 460 kts | 17° |
| 2026-05-09 03:11 | -19.70267 | -41.66356 | 37108 ft | 459 kts | 18° |
| 2026-05-09 03:11 | -19.64272 | -41.64127 | 37103 ft | 459 kts | 18° |
| 2026-05-09 03:12 | -19.58241 | -41.61886 | 37099 ft | 459 kts | 18° |
| 2026-05-09 03:12 | -19.52209 | -41.59647 | 37103 ft | 459 kts | 18° |
| 2026-05-09 03:13 | -19.43160 | -41.56291 | 37111 ft | 459 kts | 18° |
| 2026-05-09 03:13 | -19.37129 | -41.54056 | 37105 ft | 460 kts | 18° |
| 2026-05-09 03:14 | -19.31077 | -41.51815 | 37102 ft | 460 kts | 18° |
| 2026-05-09 03:14 | -19.25022 | -41.49575 | 37098 ft | 461 kts | 18° |
| 2026-05-09 03:15 | -19.18968 | -41.47337 | 37097 ft | 461 kts | 18° |
| 2026-05-09 03:15 | -19.12936 | -41.45110 | 37097 ft | 462 kts | 18° |
| 2026-05-09 03:16 | -19.06865 | -41.42869 | 37093 ft | 462 kts | 18° |
| 2026-05-09 03:16 | -19.00787 | -41.40627 | 37094 ft | 462 kts | 18° |
| 2026-05-09 03:17 | -18.95700 | -41.38752 | 37092 ft | 462 kts | 18° |
| 2026-05-09 03:17 | -18.89662 | -41.36529 | 37098 ft | 463 kts | 18° |
| 2026-05-09 03:18 | -18.83583 | -41.34292 | 37099 ft | 463 kts | 18° |
| 2026-05-09 03:18 | -18.77488 | -41.32051 | 37091 ft | 463 kts | 18° |
| 2026-05-09 03:19 | -18.71404 | -41.29816 | 37089 ft | 463 kts | 18° |
| 2026-05-09 03:19 | -18.65319 | -41.27581 | 37085 ft | 463 kts | 18° |
| 2026-05-09 03:20 | -18.59237 | -41.25350 | 37099 ft | 463 kts | 18° |
| 2026-05-09 03:20 | -18.53155 | -41.23121 | 37098 ft | 462 kts | 18° |
| 2026-05-09 03:21 | -18.47062 | -41.20889 | 37088 ft | 462 kts | 18° |
| 2026-05-09 03:21 | -18.40986 | -41.18665 | 37088 ft | 462 kts | 18° |
| 2026-05-09 03:22 | -18.34950 | -41.16457 | 37087 ft | 462 kts | 18° |
| 2026-05-09 03:22 | -18.28880 | -41.14238 | 37090 ft | 461 kts | 18° |
| 2026-05-09 03:23 | -18.22818 | -41.12024 | 37089 ft | 461 kts | 18° |
| 2026-05-09 03:23 | -18.16753 | -41.09811 | 37089 ft | 461 kts | 18° |
| 2026-05-09 03:24 | -18.10697 | -41.07602 | 37092 ft | 461 kts | 18° |
| 2026-05-09 03:24 | -18.04633 | -41.05392 | 37092 ft | 461 kts | 18° |
| 2026-05-09 03:25 | -17.98571 | -41.03184 | 37092 ft | 461 kts | 18° |
| 2026-05-09 03:25 | -17.92504 | -41.00975 | 37089 ft | 461 kts | 18° |
| 2026-05-09 03:26 | -17.86538 | -40.98547 | 37091 ft | 462 kts | 22° |
| 2026-05-09 03:26 | -17.80635 | -40.95846 | 37096 ft | 463 kts | 22° |
| 2026-05-09 03:27 | -17.74723 | -40.93127 | 37097 ft | 463 kts | 22° |
| 2026-05-09 03:27 | -17.68795 | -40.90442 | 37090 ft | 464 kts | 22° |
| 2026-05-09 03:28 | -17.62860 | -40.87778 | 37100 ft | 464 kts | 22° |
| 2026-05-09 03:28 | -17.56918 | -40.85117 | 37087 ft | 464 kts | 22° |
| 2026-05-09 03:29 | -17.51008 | -40.82473 | 37095 ft | 464 kts | 22° |
| 2026-05-09 03:29 | -17.45064 | -40.79814 | 37093 ft | 464 kts | 22° |
| 2026-05-09 03:30 | -17.39112 | -40.77154 | 37094 ft | 464 kts | 22° |
| 2026-05-09 03:30 | -17.33176 | -40.74502 | 37098 ft | 464 kts | 22° |
| 2026-05-09 03:31 | -17.27278 | -40.71868 | 37100 ft | 463 kts | 22° |
| 2026-05-09 03:31 | -17.21343 | -40.69220 | 37098 ft | 463 kts | 22° |
| 2026-05-09 03:32 | -17.15420 | -40.66580 | 37093 ft | 463 kts | 22° |
| 2026-05-09 03:32 | -17.09490 | -40.63938 | 37093 ft | 463 kts | 22° |
| 2026-05-09 03:33 | -17.03572 | -40.61303 | 37097 ft | 462 kts | 22° |
| 2026-05-09 03:33 | -16.97654 | -40.58671 | 37090 ft | 462 kts | 22° |
| 2026-05-09 03:34 | -16.91733 | -40.56038 | 37092 ft | 462 kts | 22° |
| 2026-05-09 03:34 | -16.85810 | -40.53407 | 37082 ft | 462 kts | 22° |
| 2026-05-09 03:35 | -16.79886 | -40.50776 | 37081 ft | 463 kts | 22° |
| 2026-05-09 03:35 | -16.73966 | -40.48150 | 37082 ft | 463 kts | 22° |
| 2026-05-09 03:36 | -16.68036 | -40.45521 | 37084 ft | 463 kts | 22° |
| 2026-05-09 03:36 | -16.62110 | -40.42895 | 37085 ft | 463 kts | 22° |
| 2026-05-09 03:37 | -16.56182 | -40.40270 | 37097 ft | 463 kts | 22° |
| 2026-05-09 03:37 | -16.50254 | -40.37648 | 37082 ft | 463 kts | 22° |
| 2026-05-09 03:38 | -16.44365 | -40.35043 | 37081 ft | 463 kts | 22° |
| 2026-05-09 03:38 | -16.38434 | -40.32422 | 37085 ft | 463 kts | 22° |
| 2026-05-09 03:39 | -16.32494 | -40.29799 | 37083 ft | 463 kts | 22° |
| 2026-05-09 03:39 | -16.26557 | -40.27179 | 37080 ft | 463 kts | 22° |
| 2026-05-09 03:40 | -16.20620 | -40.24561 | 37083 ft | 463 kts | 22° |
| 2026-05-09 03:40 | -16.14716 | -40.21959 | 37084 ft | 463 kts | 22° |
| 2026-05-09 03:41 | -16.08783 | -40.19346 | 37084 ft | 463 kts | 22° |
| 2026-05-09 03:41 | -16.02844 | -40.16732 | 37082 ft | 463 kts | 22° |
| 2026-05-09 03:42 | -15.96904 | -40.14119 | 37084 ft | 463 kts | 22° |
| 2026-05-09 03:42 | -15.90999 | -40.11523 | 37083 ft | 463 kts | 22° |
| 2026-05-09 03:43 | -15.85060 | -40.08914 | 37085 ft | 463 kts | 22° |
| 2026-05-09 03:43 | -15.79115 | -40.06304 | 37086 ft | 463 kts | 22° |
| 2026-05-09 03:44 | -15.73175 | -40.03698 | 37078 ft | 463 kts | 22° |
| 2026-05-09 03:44 | -15.67235 | -40.01093 | 37073 ft | 463 kts | 22° |
| 2026-05-09 03:45 | -15.61297 | -39.98491 | 37078 ft | 463 kts | 22° |
| 2026-05-09 03:45 | -15.55363 | -39.95893 | 37077 ft | 463 kts | 22° |
| 2026-05-09 03:46 | -15.49464 | -39.93311 | 37071 ft | 463 kts | 22° |
| 2026-05-09 03:46 | -15.43538 | -39.90719 | 37077 ft | 462 kts | 22° |
| 2026-05-09 03:47 | -15.37600 | -39.88124 | 37071 ft | 462 kts | 22° |
| 2026-05-09 03:47 | -15.31672 | -39.85534 | 37076 ft | 461 kts | 22° |
| 2026-05-09 03:48 | -15.25757 | -39.82951 | 37071 ft | 461 kts | 22° |
| 2026-05-09 03:48 | -15.19849 | -39.80374 | 37075 ft | 460 kts | 22° |
| 2026-05-09 03:49 | -15.13982 | -39.77815 | 37073 ft | 460 kts | 22° |
| 2026-05-09 03:49 | -15.08077 | -39.75242 | 37073 ft | 460 kts | 21° |
| 2026-05-09 03:50 | -15.02180 | -39.72673 | 37073 ft | 460 kts | 21° |
| 2026-05-09 03:50 | -14.96305 | -39.70036 | 37075 ft | 461 kts | 24° |
| 2026-05-09 03:51 | -14.90506 | -39.67066 | 37084 ft | 468 kts | 26° |
| 2026-05-09 03:51 | -14.84699 | -39.64019 | 36838 ft | 475 kts | 26° |
| 2026-05-09 03:52 | -14.81728 | -39.62475 | 36300 ft | 478 kts | 26° |
| 2026-05-09 03:52 | -14.78757 | -39.60942 | 35695 ft | 476 kts | 26° |
| 2026-05-09 03:52 | -14.75786 | -39.59417 | 35032 ft | 477 kts | 26° |
| 2026-05-09 03:52 | -14.72804 | -39.57891 | 34375 ft | 478 kts | 26° |
| 2026-05-09 03:53 | -14.69815 | -39.56364 | 33698 ft | 478 kts | 26° |
| 2026-05-09 03:53 | -14.66830 | -39.54840 | 33001 ft | 479 kts | 26° |
| 2026-05-09 03:53 | -14.63839 | -39.53314 | 32276 ft | 481 kts | 26° |
| 2026-05-09 03:53 | -14.60840 | -39.51783 | 31695 ft | 478 kts | 26° |
| 2026-05-09 03:54 | -14.57870 | -39.50267 | 31187 ft | 475 kts | 26° |
| 2026-05-09 03:54 | -14.54921 | -39.48761 | 30675 ft | 471 kts | 26° |
| 2026-05-09 03:54 | -14.52039 | -39.47291 | 30179 ft | 467 kts | 26° |
| 2026-05-09 03:54 | -14.49131 | -39.45808 | 29677 ft | 464 kts | 27° |
| 2026-05-09 03:55 | -14.46248 | -39.44337 | 29163 ft | 460 kts | 27° |
| 2026-05-09 03:55 | -14.43390 | -39.42880 | 28649 ft | 456 kts | 27° |
| 2026-05-09 03:55 | -14.40554 | -39.41435 | 28134 ft | 453 kts | 27° |
| 2026-05-09 03:55 | -14.37738 | -39.40000 | 27631 ft | 449 kts | 27° |
| 2026-05-09 03:56 | -14.34949 | -39.38579 | 27129 ft | 446 kts | 27° |
| 2026-05-09 03:56 | -14.32181 | -39.37170 | 26629 ft | 442 kts | 27° |
| 2026-05-09 03:56 | -14.29433 | -39.35771 | 26129 ft | 438 kts | 27° |
| 2026-05-09 03:56 | -14.26711 | -39.34385 | 25634 ft | 435 kts | 27° |
| 2026-05-09 03:57 | -14.24010 | -39.33010 | 25141 ft | 431 kts | 27° |
| 2026-05-09 03:57 | -14.21330 | -39.31647 | 24652 ft | 428 kts | 27° |
| 2026-05-09 03:57 | -14.18671 | -39.30295 | 24166 ft | 424 kts | 27° |
| 2026-05-09 03:57 | -14.16033 | -39.28954 | 23677 ft | 421 kts | 27° |
| 2026-05-09 03:58 | -14.13419 | -39.27625 | 23196 ft | 417 kts | 27° |
| 2026-05-09 03:58 | -14.10824 | -39.26306 | 22716 ft | 414 kts | 27° |
| 2026-05-09 03:58 | -14.08250 | -39.24998 | 22240 ft | 410 kts | 27° |
| 2026-05-09 03:58 | -14.05705 | -39.23706 | 21802 ft | 406 kts | 27° |
| 2026-05-09 03:59 | -14.03178 | -39.22422 | 21314 ft | 403 kts | 27° |
| 2026-05-09 03:59 | -14.00672 | -39.21150 | 20844 ft | 400 kts | 27° |
| 2026-05-09 03:59 | -13.98188 | -39.19889 | 20377 ft | 396 kts | 27° |
| 2026-05-09 03:59 | -13.95722 | -39.18638 | 19916 ft | 393 kts | 26° |
| 2026-05-09 04:00 | -13.93280 | -39.17398 | 19459 ft | 389 kts | 26° |
| 2026-05-09 04:00 | -13.90893 | -39.16188 | 19012 ft | 386 kts | 26° |
| 2026-05-09 04:00 | -13.88492 | -39.14970 | 18567 ft | 382 kts | 26° |
| 2026-05-09 04:00 | -13.86111 | -39.13763 | 18116 ft | 379 kts | 26° |
| 2026-05-09 04:01 | -13.83755 | -39.12568 | 17674 ft | 376 kts | 26° |
| 2026-05-09 04:01 | -13.81417 | -39.11384 | 17235 ft | 372 kts | 26° |
| 2026-05-09 04:01 | -13.79105 | -39.10212 | 16800 ft | 369 kts | 26° |
| 2026-05-09 04:01 | -13.76813 | -39.09050 | 16371 ft | 365 kts | 27° |
| 2026-05-09 04:02 | -13.74546 | -39.07903 | 15946 ft | 362 kts | 27° |
| 2026-05-09 04:02 | -13.72296 | -39.06763 | 15524 ft | 358 kts | 27° |
| 2026-05-09 04:02 | -13.70084 | -39.05622 | 15110 ft | 354 kts | 31° |
| 2026-05-09 04:02 | -13.68108 | -39.04203 | 14851 ft | 345 kts | 39° |
| 2026-05-09 04:03 | -13.66252 | -39.02663 | 14598 ft | 340 kts | 40° |
| 2026-05-09 04:03 | -13.64438 | -39.01120 | 14291 ft | 336 kts | 40° |
| 2026-05-09 04:03 | -13.62643 | -38.99599 | 13907 ft | 333 kts | 40° |
| 2026-05-09 04:03 | -13.60851 | -38.98094 | 13505 ft | 331 kts | 40° |
| 2026-05-09 04:04 | -13.59067 | -38.96610 | 13102 ft | 329 kts | 40° |
| 2026-05-09 04:04 | -13.57287 | -38.95138 | 12698 ft | 327 kts | 40° |
| 2026-05-09 04:04 | -13.55520 | -38.93681 | 12298 ft | 325 kts | 40° |
| 2026-05-09 04:04 | -13.53758 | -38.92232 | 11897 ft | 322 kts | 40° |
| 2026-05-09 04:05 | -13.52013 | -38.90799 | 11501 ft | 320 kts | 40° |
| 2026-05-09 04:05 | -13.50296 | -38.89389 | 11100 ft | 318 kts | 40° |
| 2026-05-09 04:05 | -13.48573 | -38.87976 | 10704 ft | 316 kts | 40° |
| 2026-05-09 04:05 | -13.46876 | -38.86584 | 10556 ft | 306 kts | 40° |
| 2026-05-09 04:06 | -13.45759 | -38.85668 | 10459 ft | 300 kts | 40° |
| 2026-05-09 04:06 | -13.44151 | -38.84349 | 10329 ft | 291 kts | 40° |
| 2026-05-09 04:06 | -13.42595 | -38.83074 | 10205 ft | 282 kts | 40° |
| 2026-05-09 04:06 | -13.41083 | -38.81834 | 10090 ft | 274 kts | 40° |
| 2026-05-09 04:07 | -13.39635 | -38.80648 | 9902 ft | 268 kts | 40° |
| 2026-05-09 04:07 | -13.38181 | -38.79456 | 9647 ft | 266 kts | 40° |
| 2026-05-09 04:07 | -13.36740 | -38.78273 | 9366 ft | 264 kts | 40° |
| 2026-05-09 04:07 | -13.35305 | -38.77095 | 9091 ft | 263 kts | 40° |
| 2026-05-09 04:08 | -13.33878 | -38.75924 | 8808 ft | 262 kts | 41° |
| 2026-05-09 04:08 | -13.32458 | -38.74759 | 8531 ft | 261 kts | 41° |
| 2026-05-09 04:08 | -13.31042 | -38.73597 | 8252 ft | 260 kts | 41° |
| 2026-05-09 04:08 | -13.29633 | -38.72441 | 7978 ft | 259 kts | 41° |
| 2026-05-09 04:09 | -13.28229 | -38.71289 | 7699 ft | 258 kts | 41° |
| 2026-05-09 04:09 | -13.26828 | -38.70140 | 7407 ft | 257 kts | 41° |
| 2026-05-09 04:09 | -13.25428 | -38.68992 | 7121 ft | 257 kts | 41° |
| 2026-05-09 04:09 | -13.24035 | -38.67849 | 6840 ft | 256 kts | 41° |
| 2026-05-09 04:10 | -13.22665 | -38.66726 | 6564 ft | 255 kts | 41° |
| 2026-05-09 04:10 | -13.21279 | -38.65589 | 6284 ft | 254 kts | 41° |
| 2026-05-09 04:10 | -13.19900 | -38.64458 | 6005 ft | 253 kts | 41° |
| 2026-05-09 04:10 | -13.18523 | -38.63330 | 5722 ft | 253 kts | 41° |
| 2026-05-09 04:11 | -13.17154 | -38.62209 | 5450 ft | 252 kts | 41° |
| 2026-05-09 04:11 | -13.16268 | -38.61483 | 5271 ft | 251 kts | 41° |
| 2026-05-09 04:12 | -13.15025 | -38.60465 | 5028 ft | 250 kts | 41° |
| 2026-05-09 04:12 | -13.13675 | -38.59365 | 4890 ft | 247 kts | 41° |
| 2026-05-09 04:12 | -13.12324 | -38.58266 | 4765 ft | 249 kts | 41° |
| 2026-05-09 04:12 | -13.10957 | -38.57155 | 4628 ft | 252 kts | 41° |
| 2026-05-09 04:13 | -13.09582 | -38.56037 | 4496 ft | 252 kts | 41° |
| 2026-05-09 04:13 | -13.08212 | -38.54925 | 4351 ft | 249 kts | 41° |
| 2026-05-09 04:13 | -13.06891 | -38.53853 | 4296 ft | 234 kts | 41° |
| 2026-05-09 04:13 | -13.05646 | -38.52844 | 4177 ft | 221 kts | 41° |
| 2026-05-09 04:14 | -13.04429 | -38.51951 | 4022 ft | 212 kts | 27° |
| 2026-05-09 04:14 | -13.03014 | -38.51572 | 3824 ft | 208 kts | 13° |
| 2026-05-09 04:14 | -13.01599 | -38.51367 | 3614 ft | 202 kts | 12° |
| 2026-05-09 04:14 | -13.00212 | -38.51174 | 3432 ft | 200 kts | 12° |
| 2026-05-09 04:15 | -12.98852 | -38.50978 | 3261 ft | 200 kts | 12° |
| 2026-05-09 04:15 | -12.97474 | -38.50776 | 3090 ft | 199 kts | 12° |
| 2026-05-09 04:15 | -12.96128 | -38.50572 | 2920 ft | 191 kts | 15° |
| 2026-05-09 04:15 | -12.95042 | -38.49959 | 2709 ft | 173 kts | 59° |
| 2026-05-09 04:16 | -12.94562 | -38.48858 | 2609 ft | 171 kts | 70° |
| 2026-05-09 04:16 | -12.94158 | -38.47708 | 2426 ft | 169 kts | 73° |
| 2026-05-09 04:16 | -12.93804 | -38.46608 | 2322 ft | 154 kts | 75° |
| 2026-05-09 04:16 | -12.93544 | -38.45573 | 2144 ft | 148 kts | 78° |
| 2026-05-09 04:17 | -12.93320 | -38.44529 | 2047 ft | 150 kts | 79° |
| 2026-05-09 04:17 | -12.93107 | -38.43488 | 1966 ft | 148 kts | 79° |
| 2026-05-09 04:17 | -12.92898 | -38.42447 | 1792 ft | 149 kts | 79° |
| 2026-05-09 04:17 | -12.92690 | -38.41410 | 1602 ft | 148 kts | 79° |
| 2026-05-09 04:18 | -12.92483 | -38.40378 | 1412 ft | 147 kts | 79° |
| 2026-05-09 04:18 | -12.92276 | -38.39343 | 1210 ft | 149 kts | 79° |
| 2026-05-09 04:18 | -12.92068 | -38.38305 | 1016 ft | 148 kts | 79° |
| 2026-05-09 04:18 | -12.91863 | -38.37283 | 814 ft | 148 kts | 79° |
| 2026-05-09 04:19 | -12.91657 | -38.36248 | 627 ft | 148 kts | 79° |
| 2026-05-09 04:19 | -12.91451 | -38.35213 | 425 ft | 148 kts | 79° |
| 2026-05-09 04:19 | -12.91237 | -38.34176 | 219 ft | 148 kts | 79° |
| 2026-05-09 04:19 | -12.91036 | -38.33138 | 46 ft | 146 kts | 79° |
| 2026-05-09 04:20 | -12.90866 | -38.32293 | 49 ft | 90 kts | 78° |
| 2026-05-09 04:20 | -12.90785 | -38.31897 | 47 ft | 30 kts | 78° |
| 2026-05-09 04:20 | -12.90771 | -38.31773 | 45 ft | 14 kts | 105° |
| 2026-05-09 04:20 | -12.90837 | -38.31717 | 48 ft | 12 kts | 164° |
| 2026-05-09 04:21 | -12.90896 | -38.31712 | 52 ft | 0 kts | 203° |
| 2026-05-09 04:21 | -12.90901 | -38.31716 | 48 ft | 4 kts | 219° |
| 2026-05-09 04:21 | -12.90941 | -38.31881 | 49 ft | 17 kts | 258° |
| 2026-05-09 04:22 | -12.90964 | -38.31995 | 48 ft | 16 kts | 258° |
| 2026-05-09 04:22 | -12.90986 | -38.32105 | 52 ft | 15 kts | 258° |
| 2026-05-09 04:22 | -12.91009 | -38.32220 | 49 ft | 18 kts | 259° |
| 2026-05-09 04:22 | -12.91035 | -38.32358 | 52 ft | 22 kts | 259° |
| 2026-05-09 04:23 | -12.91068 | -38.32514 | 52 ft | 22 kts | 259° |
| 2026-05-09 04:23 | -12.91098 | -38.32665 | 51 ft | 21 kts | 258° |
| 2026-05-09 04:23 | -12.91126 | -38.32812 | 48 ft | 21 kts | 259° |
| 2026-05-09 04:23 | -12.91156 | -38.32955 | 46 ft | 20 kts | 258° |
| 2026-05-09 04:24 | -12.91183 | -38.33093 | 43 ft | 20 kts | 258° |
| 2026-05-09 04:24 | -12.91228 | -38.33177 | 43 ft | 13 kts | 189° |
| 2026-05-09 04:24 | -12.91313 | -38.33164 | 41 ft | 12 kts | 169° |
| 2026-05-09 04:24 | -12.91382 | -38.33154 | 43 ft | 6 kts | 195° |
| 2026-05-09 04:25 | -12.91393 | -38.33192 | 40 ft | 6 kts | 271° |
| 2026-05-09 04:25 | -12.91391 | -38.33207 | 43 ft | 0 kts | 276° |